sensor_id;sensor_type;location;lat;lon;timestamp;temperature;humidity
2212;DHT22;48849;48.758;9.158;2023-02-21T00:02:16;9.20;99.90
2212;DHT22;48849;48.758;9.158;2023-02-21T00:05:00;9.20;99.90
2212;DHT22;48849;48.758;9.158;2023-02-21T00:07:46;9.30;99.90
2212;DHT22;48849;48.758;9.158;2023-02-21T00:10:30;9.40;99.90
2212;DHT22;48849;48.758;9.158;2023-02-21T00:13:14;9.40;99.90
2212;DHT22;48849;48.758;9.158;2023-02-21T00:15:58;9.40;99.90
2212;DHT22;48849;48.758;9.158;2023-02-21T00:18:42;9.30;99.90
2212;DHT22;48849;48.758;9.158;2023-02-21T00:21:27;9.20;99.90
2212;DHT22;48849;48.758;9.158;2023-02-21T00:24:14;9.30;99.90
2212;DHT22;48849;48.758;9.158;2023-02-21T00:26:59;9.30;99.90
2212;DHT22;48849;48.758;9.158;2023-02-21T00:29:43;9.40;99.90
2212;DHT22;48849;48.758;9.158;2023-02-21T00:32:29;9.30;99.90
2212;DHT22;48849;48.758;9.158;2023-02-21T00:35:13;9.30;99.90
2212;DHT22;48849;48.758;9.158;2023-02-21T00:37:57;9.30;99.90
2212;DHT22;48849;48.758;9.158;2023-02-21T00:40:43;9.30;99.90
2212;DHT22;48849;48.758;9.158;2023-02-21T00:43:28;9.30;99.90
2212;DHT22;48849;48.758;9.158;2023-02-21T00:46:13;9.30;99.90
2212;DHT22;48849;48.758;9.158;2023-02-21T00:48:57;9.20;99.90
2212;DHT22;48849;48.758;9.158;2023-02-21T00:51:41;9.20;99.90
2212;DHT22;48849;48.758;9.158;2023-02-21T00:54:25;9.20;99.90
2212;DHT22;48849;48.758;9.158;2023-02-21T00:57:10;9.10;99.90
2212;DHT22;48849;48.758;9.158;2023-02-21T00:59:54;9.10;99.90
2212;DHT22;48849;48.758;9.158;2023-02-21T01:02:38;9.10;99.90
2212;DHT22;48849;48.758;9.158;2023-02-21T01:05:22;8.90;99.90
2212;DHT22;48849;48.758;9.158;2023-02-21T01:08:06;8.90;99.90
2212;DHT22;48849;48.758;9.158;2023-02-21T01:10:51;8.90;99.90
2212;DHT22;48849;48.758;9.158;2023-02-21T01:13:36;8.90;99.90
2212;DHT22;48849;48.758;9.158;2023-02-21T01:16:20;8.80;99.90
2212;DHT22;48849;48.758;9.158;2023-02-21T01:19:04;8.80;99.90
2212;DHT22;48849;48.758;9.158;2023-02-21T01:21:48;8.90;99.90
2212;DHT22;48849;48.758;9.158;2023-02-21T01:24:33;8.80;99.90
2212;DHT22;48849;48.758;9.158;2023-02-21T01:27:17;8.80;99.90
2212;DHT22;48849;48.758;9.158;2023-02-21T01:30:03;8.80;99.90
2212;DHT22;48849;48.758;9.158;2023-02-21T01:32:46;8.90;99.90
2212;DHT22;48849;48.758;9.158;2023-02-21T01:35:31;8.80;99.90
2212;DHT22;48849;48.758;9.158;2023-02-21T01:38:15;8.90;99.90
2212;DHT22;48849;48.758;9.158;2023-02-21T01:40:59;8.80;99.90
2212;DHT22;48849;48.758;9.158;2023-02-21T01:43:58;8.80;99.90
2212;DHT22;48849;48.758;9.158;2023-02-21T01:46:44;8.80;99.90
2212;DHT22;48849;48.758;9.158;2023-02-21T01:49:29;8.80;99.90
2212;DHT22;48849;48.758;9.158;2023-02-21T01:52:13;8.80;99.90
2212;DHT22;48849;48.758;9.158;2023-02-21T01:54:58;8.90;99.90
2212;DHT22;48849;48.758;9.158;2023-02-21T01:57:43;8.90;99.90
2212;DHT22;48849;48.758;9.158;2023-02-21T02:00:28;8.80;99.90
2212;DHT22;48849;48.758;9.158;2023-02-21T02:03:15;8.80;99.90
2212;DHT22;48849;48.758;9.158;2023-02-21T02:06:03;8.80;99.90
2212;DHT22;48849;48.758;9.158;2023-02-21T02:08:47;8.90;99.90
2212;DHT22;48849;48.758;9.158;2023-02-21T02:11:47;8.90;99.90
2212;DHT22;48849;48.758;9.158;2023-02-21T02:15:02;8.90;99.90
2212;DHT22;48849;48.758;9.158;2023-02-21T02:17:40;8.90;99.90
2212;DHT22;48849;48.758;9.158;2023-02-21T02:23:33;8.90;99.90
2212;DHT22;48849;48.758;9.158;2023-02-21T02:26:45;8.90;99.90
2212;DHT22;48849;48.758;9.158;2023-02-21T02:29:44;9.00;99.90
2212;DHT22;48849;48.758;9.158;2023-02-21T02:32:45;9.00;99.90
2212;DHT22;48849;48.758;9.158;2023-02-21T02:35:21;9.10;99.90
2212;DHT22;48849;48.758;9.158;2023-02-21T02:37:56;9.20;99.90
2212;DHT22;48849;48.758;9.158;2023-02-21T02:40:29;9.20;99.90
2212;DHT22;48849;48.758;9.158;2023-02-21T02:43:04;9.20;99.90
2212;DHT22;48849;48.758;9.158;2023-02-21T02:45:36;9.30;99.90
2212;DHT22;48849;48.758;9.158;2023-02-21T02:48:12;9.30;99.90
2212;DHT22;48849;48.758;9.158;2023-02-21T02:50:44;9.30;99.90
2212;DHT22;48849;48.758;9.158;2023-02-21T02:53:11;9.30;99.90
2212;DHT22;48849;48.758;9.158;2023-02-21T02:55:42;9.30;99.90
2212;DHT22;48849;48.758;9.158;2023-02-21T02:58:11;9.10;99.90
2212;DHT22;48849;48.758;9.158;2023-02-21T03:00:40;9.00;99.90
2212;DHT22;48849;48.758;9.158;2023-02-21T03:06:29;9.00;99.90
2212;DHT22;48849;48.758;9.158;2023-02-21T03:09:02;9.10;99.90
2212;DHT22;48849;48.758;9.158;2023-02-21T03:11:36;9.00;99.90
2212;DHT22;48849;48.758;9.158;2023-02-21T03:14:11;9.10;99.90
2212;DHT22;48849;48.758;9.158;2023-02-21T03:16:42;9.20;99.90
2212;DHT22;48849;48.758;9.158;2023-02-21T03:19:14;9.20;99.90
2212;DHT22;48849;48.758;9.158;2023-02-21T03:21:46;9.30;99.90
2212;DHT22;48849;48.758;9.158;2023-02-21T03:24:17;9.30;99.90
2212;DHT22;48849;48.758;9.158;2023-02-21T03:26:48;9.20;99.90
2212;DHT22;48849;48.758;9.158;2023-02-21T03:29:18;9.20;99.90
2212;DHT22;48849;48.758;9.158;2023-02-21T03:31:47;9.20;99.90
2212;DHT22;48849;48.758;9.158;2023-02-21T03:34:16;9.10;99.90
2212;DHT22;48849;48.758;9.158;2023-02-21T03:36:44;9.00;99.90
2212;DHT22;48849;48.758;9.158;2023-02-21T03:39:11;8.90;99.90
2212;DHT22;48849;48.758;9.158;2023-02-21T03:41:38;8.90;99.90
2212;DHT22;48849;48.758;9.158;2023-02-21T03:44:05;8.80;99.90
2212;DHT22;48849;48.758;9.158;2023-02-21T03:46:31;7.10;99.90
2212;DHT22;48849;48.758;9.158;2023-02-21T03:48:59;8.80;99.90
2212;DHT22;48849;48.758;9.158;2023-02-21T03:51:26;8.60;99.90
2212;DHT22;48849;48.758;9.158;2023-02-21T03:53:54;8.50;99.90
2212;DHT22;48849;48.758;9.158;2023-02-21T03:56:21;8.50;99.90
2212;DHT22;48849;48.758;9.158;2023-02-21T03:58:47;8.50;99.90
2212;DHT22;48849;48.758;9.158;2023-02-21T04:01:14;8.50;99.90
2212;DHT22;48849;48.758;9.158;2023-02-21T04:03:41;8.40;99.90
2212;DHT22;48849;48.758;9.158;2023-02-21T04:06:07;7.20;99.90
2212;DHT22;48849;48.758;9.158;2023-02-21T04:08:34;8.10;99.90
2212;DHT22;48849;48.758;9.158;2023-02-21T04:11:02;8.20;99.90
2212;DHT22;48849;48.758;9.158;2023-02-21T04:13:29;8.20;99.90
2212;DHT22;48849;48.758;9.158;2023-02-21T04:15:56;8.20;99.90
2212;DHT22;48849;48.758;9.158;2023-02-21T04:18:23;8.10;99.90
2212;DHT22;48849;48.758;9.158;2023-02-21T04:20:49;8.10;99.90
2212;DHT22;48849;48.758;9.158;2023-02-21T04:23:17;8.10;99.90
2212;DHT22;48849;48.758;9.158;2023-02-21T04:25:44;8.20;99.90
2212;DHT22;48849;48.758;9.158;2023-02-21T04:28:12;8.20;99.90
2212;DHT22;48849;48.758;9.158;2023-02-21T04:30:38;8.20;99.90
2212;DHT22;48849;48.758;9.158;2023-02-21T04:33:05;8.10;99.90
2212;DHT22;48849;48.758;9.158;2023-02-21T04:35:32;8.10;99.90
2212;DHT22;48849;48.758;9.158;2023-02-21T04:37:59;8.10;99.90
2212;DHT22;48849;48.758;9.158;2023-02-21T04:40:25;8.10;99.90
2212;DHT22;48849;48.758;9.158;2023-02-21T04:42:52;8.10;99.90
2212;DHT22;48849;48.758;9.158;2023-02-21T04:45:20;8.00;99.90
2212;DHT22;48849;48.758;9.158;2023-02-21T04:47:47;8.00;99.90
2212;DHT22;48849;48.758;9.158;2023-02-21T04:50:13;8.00;99.90
2212;DHT22;48849;48.758;9.158;2023-02-21T04:52:40;8.00;99.90
2212;DHT22;48849;48.758;9.158;2023-02-21T04:55:07;7.90;99.90
2212;DHT22;48849;48.758;9.158;2023-02-21T04:57:34;8.00;99.90
2212;DHT22;48849;48.758;9.158;2023-02-21T05:00:00;8.00;99.90
2212;DHT22;48849;48.758;9.158;2023-02-21T05:02:32;7.90;99.90
2212;DHT22;48849;48.758;9.158;2023-02-21T05:04:59;7.90;99.90
2212;DHT22;48849;48.758;9.158;2023-02-21T05:07:25;7.90;99.90
2212;DHT22;48849;48.758;9.158;2023-02-21T05:09:52;7.90;99.90
2212;DHT22;48849;48.758;9.158;2023-02-21T05:12:19;7.90;99.90
2212;DHT22;48849;48.758;9.158;2023-02-21T05:14:45;7.90;99.90
2212;DHT22;48849;48.758;9.158;2023-02-21T05:17:12;7.90;99.90
2212;DHT22;48849;48.758;9.158;2023-02-21T05:19:40;7.90;99.90
2212;DHT22;48849;48.758;9.158;2023-02-21T05:22:07;7.90;99.90
2212;DHT22;48849;48.758;9.158;2023-02-21T05:24:33;7.90;99.90
2212;DHT22;48849;48.758;9.158;2023-02-21T05:27:00;7.90;99.90
2212;DHT22;48849;48.758;9.158;2023-02-21T05:29:27;7.90;99.90
2212;DHT22;48849;48.758;9.158;2023-02-21T05:31:54;7.90;99.90
2212;DHT22;48849;48.758;9.158;2023-02-21T05:34:20;7.90;99.90
2212;DHT22;48849;48.758;9.158;2023-02-21T05:36:48;7.90;99.90
2212;DHT22;48849;48.758;9.158;2023-02-21T05:39:15;7.90;99.90
2212;DHT22;48849;48.758;9.158;2023-02-21T05:41:46;7.80;99.90
2212;DHT22;48849;48.758;9.158;2023-02-21T05:44:13;7.80;99.90
2212;DHT22;48849;48.758;9.158;2023-02-21T05:46:40;8.90;99.90
2212;DHT22;48849;48.758;9.158;2023-02-21T05:49:07;7.70;99.90
2212;DHT22;48849;48.758;9.158;2023-02-21T05:51:35;7.70;99.90
2212;DHT22;48849;48.758;9.158;2023-02-21T05:54:04;7.70;99.90
2212;DHT22;48849;48.758;9.158;2023-02-21T05:56:36;7.50;99.90
2212;DHT22;48849;48.758;9.158;2023-02-21T05:59:03;7.40;99.90
2212;DHT22;48849;48.758;9.158;2023-02-21T06:01:30;7.40;99.90
2212;DHT22;48849;48.758;9.158;2023-02-21T06:03:56;7.50;99.90
2212;DHT22;48849;48.758;9.158;2023-02-21T06:06:23;7.50;99.90
2212;DHT22;48849;48.758;9.158;2023-02-21T06:08:50;7.50;99.90
2212;DHT22;48849;48.758;9.158;2023-02-21T06:11:23;7.50;99.90
2212;DHT22;48849;48.758;9.158;2023-02-21T06:13:51;7.50;99.90
2212;DHT22;48849;48.758;9.158;2023-02-21T06:16:18;7.50;99.90
2212;DHT22;48849;48.758;9.158;2023-02-21T06:18:48;7.60;99.90
2212;DHT22;48849;48.758;9.158;2023-02-21T06:21:14;7.50;99.90
2212;DHT22;48849;48.758;9.158;2023-02-21T06:23:41;7.50;99.90
2212;DHT22;48849;48.758;9.158;2023-02-21T06:26:08;7.40;99.90
2212;DHT22;48849;48.758;9.158;2023-02-21T06:28:36;7.50;99.90
2212;DHT22;48849;48.758;9.158;2023-02-21T06:31:03;7.40;99.90
2212;DHT22;48849;48.758;9.158;2023-02-21T06:33:30;7.40;99.90
2212;DHT22;48849;48.758;9.158;2023-02-21T06:35:56;7.50;99.90
2212;DHT22;48849;48.758;9.158;2023-02-21T06:38:23;7.50;99.90
2212;DHT22;48849;48.758;9.158;2023-02-21T06:40:50;7.50;99.90
2212;DHT22;48849;48.758;9.158;2023-02-21T06:43:16;7.60;99.90
2212;DHT22;48849;48.758;9.158;2023-02-21T06:45:44;7.70;99.90
2212;DHT22;48849;48.758;9.158;2023-02-21T06:48:13;7.70;99.90
2212;DHT22;48849;48.758;9.158;2023-02-21T06:50:40;7.80;99.90
2212;DHT22;48849;48.758;9.158;2023-02-21T06:53:06;7.80;99.90
2212;DHT22;48849;48.758;9.158;2023-02-21T06:55:33;7.90;99.90
2212;DHT22;48849;48.758;9.158;2023-02-21T06:58:00;7.80;99.90
2212;DHT22;48849;48.758;9.158;2023-02-21T07:00:26;7.80;99.90
2212;DHT22;48849;48.758;9.158;2023-02-21T07:02:54;7.80;99.90
2212;DHT22;48849;48.758;9.158;2023-02-21T07:05:21;7.80;99.90
2212;DHT22;48849;48.758;9.158;2023-02-21T07:07:48;7.80;99.90
2212;DHT22;48849;48.758;9.158;2023-02-21T07:10:14;7.80;99.90
2212;DHT22;48849;48.758;9.158;2023-02-21T07:12:42;7.80;99.90
2212;DHT22;48849;48.758;9.158;2023-02-21T07:15:09;7.80;99.90
2212;DHT22;48849;48.758;9.158;2023-02-21T07:17:35;7.80;99.90
2212;DHT22;48849;48.758;9.158;2023-02-21T07:20:04;7.90;99.90
2212;DHT22;48849;48.758;9.158;2023-02-21T07:22:31;7.90;99.90
2212;DHT22;48849;48.758;9.158;2023-02-21T07:24:57;8.00;99.90
2212;DHT22;48849;48.758;9.158;2023-02-21T07:27:24;8.00;99.90
2212;DHT22;48849;48.758;9.158;2023-02-21T07:29:51;8.00;99.90
2212;DHT22;48849;48.758;9.158;2023-02-21T07:32:17;8.00;99.90
2212;DHT22;48849;48.758;9.158;2023-02-21T07:34:44;8.00;99.90
2212;DHT22;48849;48.758;9.158;2023-02-21T07:37:13;8.10;99.90
2212;DHT22;48849;48.758;9.158;2023-02-21T07:39:40;9.70;99.90
2212;DHT22;48849;48.758;9.158;2023-02-21T07:42:06;8.20;99.90
2212;DHT22;48849;48.758;9.158;2023-02-21T07:44:33;8.20;99.90
2212;DHT22;48849;48.758;9.158;2023-02-21T07:47:00;8.20;99.90
2212;DHT22;48849;48.758;9.158;2023-02-21T07:49:26;8.20;99.90
2212;DHT22;48849;48.758;9.158;2023-02-21T07:51:53;8.20;99.90
2212;DHT22;48849;48.758;9.158;2023-02-21T07:54:21;8.20;99.90
2212;DHT22;48849;48.758;9.158;2023-02-21T07:56:48;8.30;99.90
2212;DHT22;48849;48.758;9.158;2023-02-21T07:59:15;8.30;99.90
2212;DHT22;48849;48.758;9.158;2023-02-21T08:01:42;8.30;99.90
2212;DHT22;48849;48.758;9.158;2023-02-21T08:04:08;8.40;99.90
2212;DHT22;48849;48.758;9.158;2023-02-21T08:06:35;8.40;99.90
2212;DHT22;48849;48.758;9.158;2023-02-21T08:09:03;8.40;99.90
2212;DHT22;48849;48.758;9.158;2023-02-21T08:11:32;8.50;99.90
2212;DHT22;48849;48.758;9.158;2023-02-21T08:14:01;8.50;99.90
2212;DHT22;48849;48.758;9.158;2023-02-21T08:16:28;8.60;99.90
2212;DHT22;48849;48.758;9.158;2023-02-21T08:18:54;8.60;99.90
2212;DHT22;48849;48.758;9.158;2023-02-21T08:21:21;8.60;99.90
2212;DHT22;48849;48.758;9.158;2023-02-21T08:23:49;8.70;99.90
2212;DHT22;48849;48.758;9.158;2023-02-21T08:26:17;8.70;99.90
2212;DHT22;48849;48.758;9.158;2023-02-21T08:28:45;8.70;99.90
2212;DHT22;48849;48.758;9.158;2023-02-21T08:31:11;8.70;99.90
2212;DHT22;48849;48.758;9.158;2023-02-21T08:33:38;8.80;99.90
2212;DHT22;48849;48.758;9.158;2023-02-21T08:36:06;8.80;99.90
2212;DHT22;48849;48.758;9.158;2023-02-21T08:38:32;8.90;99.90
2212;DHT22;48849;48.758;9.158;2023-02-21T08:40:59;8.90;99.90
2212;DHT22;48849;48.758;9.158;2023-02-21T08:43:27;8.90;99.90
2212;DHT22;48849;48.758;9.158;2023-02-21T08:45:55;9.00;99.90
2212;DHT22;48849;48.758;9.158;2023-02-21T08:48:22;9.00;99.90
2212;DHT22;48849;48.758;9.158;2023-02-21T08:50:48;9.00;99.90
2212;DHT22;48849;48.758;9.158;2023-02-21T08:53:16;9.00;99.90
2212;DHT22;48849;48.758;9.158;2023-02-21T08:55:43;9.00;99.90
2212;DHT22;48849;48.758;9.158;2023-02-21T08:58:11;9.10;99.90
2212;DHT22;48849;48.758;9.158;2023-02-21T09:00:38;9.10;99.90
2212;DHT22;48849;48.758;9.158;2023-02-21T09:03:06;9.10;99.90
2212;DHT22;48849;48.758;9.158;2023-02-21T09:05:33;9.20;99.90
2212;DHT22;48849;48.758;9.158;2023-02-21T09:08:00;9.20;99.90
2212;DHT22;48849;48.758;9.158;2023-02-21T09:10:29;9.20;99.90
2212;DHT22;48849;48.758;9.158;2023-02-21T09:12:58;9.20;99.90
2212;DHT22;48849;48.758;9.158;2023-02-21T09:15:25;9.30;99.90
2212;DHT22;48849;48.758;9.158;2023-02-21T09:17:52;9.30;99.90
2212;DHT22;48849;48.758;9.158;2023-02-21T09:20:22;9.30;99.90
2212;DHT22;48849;48.758;9.158;2023-02-21T09:22:49;9.30;99.90
2212;DHT22;48849;48.758;9.158;2023-02-21T09:25:20;9.30;99.90
2212;DHT22;48849;48.758;9.158;2023-02-21T09:27:48;9.40;99.90
2212;DHT22;48849;48.758;9.158;2023-02-21T09:30:18;9.40;99.90
2212;DHT22;48849;48.758;9.158;2023-02-21T09:32:46;9.40;99.90
2212;DHT22;48849;48.758;9.158;2023-02-21T09:35:14;9.50;99.90
2212;DHT22;48849;48.758;9.158;2023-02-21T09:37:44;9.50;99.90
2212;DHT22;48849;48.758;9.158;2023-02-21T09:40:15;9.60;99.90
2212;DHT22;48849;48.758;9.158;2023-02-21T09:42:43;9.60;99.90
2212;DHT22;48849;48.758;9.158;2023-02-21T09:45:14;9.60;99.90
2212;DHT22;48849;48.758;9.158;2023-02-21T09:47:43;9.60;99.90
2212;DHT22;48849;48.758;9.158;2023-02-21T09:50:13;9.60;99.90
2212;DHT22;48849;48.758;9.158;2023-02-21T09:52:41;9.70;99.90
2212;DHT22;48849;48.758;9.158;2023-02-21T09:55:18;9.70;99.90
2212;DHT22;48849;48.758;9.158;2023-02-21T09:57:46;9.70;99.90
2212;DHT22;48849;48.758;9.158;2023-02-21T10:00:20;9.80;99.90
2212;DHT22;48849;48.758;9.158;2023-02-21T10:03:12;9.80;99.90
2212;DHT22;48849;48.758;9.158;2023-02-21T10:05:46;9.80;99.90
2212;DHT22;48849;48.758;9.158;2023-02-21T10:08:22;9.90;99.90
2212;DHT22;48849;48.758;9.158;2023-02-21T10:10:55;9.90;99.90
2212;DHT22;48849;48.758;9.158;2023-02-21T10:13:34;9.90;99.90
2212;DHT22;48849;48.758;9.158;2023-02-21T10:16:09;9.90;99.90
2212;DHT22;48849;48.758;9.158;2023-02-21T10:18:40;10.00;99.90
2212;DHT22;48849;48.758;9.158;2023-02-21T10:21:13;10.00;99.90
2212;DHT22;48849;48.758;9.158;2023-02-21T10:23:44;10.00;99.90
2212;DHT22;48849;48.758;9.158;2023-02-21T10:26:15;10.10;99.90
2212;DHT22;48849;48.758;9.158;2023-02-21T10:28:43;10.10;99.90
2212;DHT22;48849;48.758;9.158;2023-02-21T10:31:13;10.10;99.90
2212;DHT22;48849;48.758;9.158;2023-02-21T10:33:41;10.10;99.90
2212;DHT22;48849;48.758;9.158;2023-02-21T10:36:11;10.20;99.90
2212;DHT22;48849;48.758;9.158;2023-02-21T10:38:40;10.20;99.90
2212;DHT22;48849;48.758;9.158;2023-02-21T10:41:10;10.30;99.90
2212;DHT22;48849;48.758;9.158;2023-02-21T10:43:40;10.30;99.90
2212;DHT22;48849;48.758;9.158;2023-02-21T10:46:14;10.30;99.90
2212;DHT22;48849;48.758;9.158;2023-02-21T10:48:46;10.40;99.90
2212;DHT22;48849;48.758;9.158;2023-02-21T10:51:14;10.40;99.90
2212;DHT22;48849;48.758;9.158;2023-02-21T10:53:43;10.40;99.90
2212;DHT22;48849;48.758;9.158;2023-02-21T10:56:26;10.50;99.90
2212;DHT22;48849;48.758;9.158;2023-02-21T10:58:56;10.50;99.90
2212;DHT22;48849;48.758;9.158;2023-02-21T11:01:34;10.60;99.90
2212;DHT22;48849;48.758;9.158;2023-02-21T11:04:04;10.60;99.90
2212;DHT22;48849;48.758;9.158;2023-02-21T11:06:35;10.60;99.90
2212;DHT22;48849;48.758;9.158;2023-02-21T11:09:23;10.70;99.90
2212;DHT22;48849;48.758;9.158;2023-02-21T11:12:01;10.70;99.90
2212;DHT22;48849;48.758;9.158;2023-02-21T11:14:29;10.80;99.90
2212;DHT22;48849;48.758;9.158;2023-02-21T11:17:17;10.80;99.90
2212;DHT22;48849;48.758;9.158;2023-02-21T11:19:48;10.80;99.90
2212;DHT22;48849;48.758;9.158;2023-02-21T11:22:16;10.80;99.90
2212;DHT22;48849;48.758;9.158;2023-02-21T11:24:52;10.90;99.90
2212;DHT22;48849;48.758;9.158;2023-02-21T11:27:22;10.90;99.90
2212;DHT22;48849;48.758;9.158;2023-02-21T11:29:51;11.00;99.90
2212;DHT22;48849;48.758;9.158;2023-02-21T11:32:24;11.00;99.90
2212;DHT22;48849;48.758;9.158;2023-02-21T11:34:51;11.10;99.90
2212;DHT22;48849;48.758;9.158;2023-02-21T11:37:26;11.20;99.90
2212;DHT22;48849;48.758;9.158;2023-02-21T11:39:53;11.30;99.90
2212;DHT22;48849;48.758;9.158;2023-02-21T11:42:27;11.40;99.90
2212;DHT22;48849;48.758;9.158;2023-02-21T11:45:11;11.50;99.90
2212;DHT22;48849;48.758;9.158;2023-02-21T11:47:44;11.70;99.90
2212;DHT22;48849;48.758;9.158;2023-02-21T11:50:17;11.80;99.90
2212;DHT22;48849;48.758;9.158;2023-02-21T11:52:49;11.90;99.90
2212;DHT22;48849;48.758;9.158;2023-02-21T11:55:20;12.10;99.90
2212;DHT22;48849;48.758;9.158;2023-02-21T11:57:54;13.80;99.90
2212;DHT22;48849;48.758;9.158;2023-02-21T12:00:26;12.40;99.90
2212;DHT22;48849;48.758;9.158;2023-02-21T12:03:05;12.50;99.90
2212;DHT22;48849;48.758;9.158;2023-02-21T12:05:44;12.60;99.90
2212;DHT22;48849;48.758;9.158;2023-02-21T12:08:36;12.80;99.90
2212;DHT22;48849;48.758;9.158;2023-02-21T12:14:06;12.80;99.90
2212;DHT22;48849;48.758;9.158;2023-02-21T12:16:43;12.90;99.90
2212;DHT22;48849;48.758;9.158;2023-02-21T12:19:27;12.90;99.90
2212;DHT22;48849;48.758;9.158;2023-02-21T12:22:01;12.90;99.90
2212;DHT22;48849;48.758;9.158;2023-02-21T12:24:42;12.90;99.90
2212;DHT22;48849;48.758;9.158;2023-02-21T12:27:16;12.90;99.90
2212;DHT22;48849;48.758;9.158;2023-02-21T12:30:00;12.90;99.90
2212;DHT22;48849;48.758;9.158;2023-02-21T12:32:41;12.80;99.90
2212;DHT22;48849;48.758;9.158;2023-02-21T12:35:36;12.80;99.90
2212;DHT22;48849;48.758;9.158;2023-02-21T12:38:09;12.70;99.90
2212;DHT22;48849;48.758;9.158;2023-02-21T12:40:47;12.70;99.90
2212;DHT22;48849;48.758;9.158;2023-02-21T12:43:32;12.60;99.90
2212;DHT22;48849;48.758;9.158;2023-02-21T12:46:10;12.60;99.90
2212;DHT22;48849;48.758;9.158;2023-02-21T12:48:43;12.50;99.90
2212;DHT22;48849;48.758;9.158;2023-02-21T12:51:14;12.50;99.90
2212;DHT22;48849;48.758;9.158;2023-02-21T12:53:46;12.40;99.90
2212;DHT22;48849;48.758;9.158;2023-02-21T12:56:17;12.40;99.90
2212;DHT22;48849;48.758;9.158;2023-02-21T12:58:49;12.30;99.90
2212;DHT22;48849;48.758;9.158;2023-02-21T13:01:20;12.30;99.90
2212;DHT22;48849;48.758;9.158;2023-02-21T13:03:56;12.30;99.90
2212;DHT22;48849;48.758;9.158;2023-02-21T13:06:28;12.30;99.90
2212;DHT22;48849;48.758;9.158;2023-02-21T13:09:06;12.30;99.90
2212;DHT22;48849;48.758;9.158;2023-02-21T13:11:38;12.30;99.90
2212;DHT22;48849;48.758;9.158;2023-02-21T13:14:09;12.30;99.90
2212;DHT22;48849;48.758;9.158;2023-02-21T13:16:39;12.30;99.90
2212;DHT22;48849;48.758;9.158;2023-02-21T13:19:08;12.30;99.90
2212;DHT22;48849;48.758;9.158;2023-02-21T13:21:58;12.30;99.90
2212;DHT22;48849;48.758;9.158;2023-02-21T13:24:41;12.30;99.90
2212;DHT22;48849;48.758;9.158;2023-02-21T13:27:39;12.30;99.90
2212;DHT22;48849;48.758;9.158;2023-02-21T13:30:13;12.40;99.90
2212;DHT22;48849;48.758;9.158;2023-02-21T13:32:50;12.30;99.90
2212;DHT22;48849;48.758;9.158;2023-02-21T13:35:20;12.30;99.90
2212;DHT22;48849;48.758;9.158;2023-02-21T13:37:50;12.30;99.90
2212;DHT22;48849;48.758;9.158;2023-02-21T13:40:20;12.40;99.90
2212;DHT22;48849;48.758;9.158;2023-02-21T13:42:58;12.40;99.90
2212;DHT22;48849;48.758;9.158;2023-02-21T13:45:27;12.30;99.90
2212;DHT22;48849;48.758;9.158;2023-02-21T13:48:26;12.30;99.90
2212;DHT22;48849;48.758;9.158;2023-02-21T13:50:54;12.30;99.90
2212;DHT22;48849;48.758;9.158;2023-02-21T13:53:23;12.30;99.90
2212;DHT22;48849;48.758;9.158;2023-02-21T13:56:13;12.30;99.90
2212;DHT22;48849;48.758;9.158;2023-02-21T13:58:40;12.20;99.90
2212;DHT22;48849;48.758;9.158;2023-02-21T14:07:55;12.20;99.90
2212;DHT22;48849;48.758;9.158;2023-02-21T14:10:42;12.10;99.90
2212;DHT22;48849;48.758;9.158;2023-02-21T14:13:22;12.10;99.90
2212;DHT22;48849;48.758;9.158;2023-02-21T14:15:56;12.10;99.90
2212;DHT22;48849;48.758;9.158;2023-02-21T14:18:27;12.10;99.90
2212;DHT22;48849;48.758;9.158;2023-02-21T14:20:55;12.00;99.90
2212;DHT22;48849;48.758;9.158;2023-02-21T14:23:38;12.00;99.90
2212;DHT22;48849;48.758;9.158;2023-02-21T14:26:06;12.00;99.90
2212;DHT22;48849;48.758;9.158;2023-02-21T14:28:58;12.00;99.90
2212;DHT22;48849;48.758;9.158;2023-02-21T14:31:45;12.00;99.90
2212;DHT22;48849;48.758;9.158;2023-02-21T14:34:13;12.00;99.90
2212;DHT22;48849;48.758;9.158;2023-02-21T14:36:41;12.00;99.90
2212;DHT22;48849;48.758;9.158;2023-02-21T14:39:10;12.00;99.90
2212;DHT22;48849;48.758;9.158;2023-02-21T14:41:50;12.00;99.90
2212;DHT22;48849;48.758;9.158;2023-02-21T14:44:27;11.90;99.90
2212;DHT22;48849;48.758;9.158;2023-02-21T14:47:16;11.90;99.90
2212;DHT22;48849;48.758;9.158;2023-02-21T14:56:20;11.90;99.90
2212;DHT22;48849;48.758;9.158;2023-02-21T15:01:44;11.90;99.90
2212;DHT22;48849;48.758;9.158;2023-02-21T15:04:16;11.90;99.90
2212;DHT22;48849;48.758;9.158;2023-02-21T15:06:54;11.90;99.90
2212;DHT22;48849;48.758;9.158;2023-02-21T15:09:24;11.80;99.90
2212;DHT22;48849;48.758;9.158;2023-02-21T15:11:52;11.90;99.90
2212;DHT22;48849;48.758;9.158;2023-02-21T15:14:23;11.80;99.90
2212;DHT22;48849;48.758;9.158;2023-02-21T15:16:53;11.90;99.90
2212;DHT22;48849;48.758;9.158;2023-02-21T15:19:23;11.30;99.90
2212;DHT22;48849;48.758;9.158;2023-02-21T15:22:17;11.80;99.90
2212;DHT22;48849;48.758;9.158;2023-02-21T15:25:12;11.90;99.90
2212;DHT22;48849;48.758;9.158;2023-02-21T15:27:54;11.80;99.90
2212;DHT22;48849;48.758;9.158;2023-02-21T15:30:24;11.80;99.90
2212;DHT22;48849;48.758;9.158;2023-02-21T15:32:55;11.80;99.90
2212;DHT22;48849;48.758;9.158;2023-02-21T15:35:25;11.80;99.90
2212;DHT22;48849;48.758;9.158;2023-02-21T15:37:56;11.80;99.90
2212;DHT22;48849;48.758;9.158;2023-02-21T15:40:25;11.80;99.90
2212;DHT22;48849;48.758;9.158;2023-02-21T15:42:54;11.80;99.90
2212;DHT22;48849;48.758;9.158;2023-02-21T15:45:24;11.80;99.90
2212;DHT22;48849;48.758;9.158;2023-02-21T15:47:52;11.80;99.90
2212;DHT22;48849;48.758;9.158;2023-02-21T15:50:28;11.80;99.90
2212;DHT22;48849;48.758;9.158;2023-02-21T15:53:14;11.80;99.90
2212;DHT22;48849;48.758;9.158;2023-02-21T15:55:41;11.80;99.90
2212;DHT22;48849;48.758;9.158;2023-02-21T15:58:16;11.80;99.90
2212;DHT22;48849;48.758;9.158;2023-02-21T16:00:44;11.80;99.90
2212;DHT22;48849;48.758;9.158;2023-02-21T16:03:31;11.80;99.90
2212;DHT22;48849;48.758;9.158;2023-02-21T16:06:14;11.80;99.90
2212;DHT22;48849;48.758;9.158;2023-02-21T16:08:59;11.80;99.90
2212;DHT22;48849;48.758;9.158;2023-02-21T16:11:39;11.80;99.90
2212;DHT22;48849;48.758;9.158;2023-02-21T16:14:17;16.20;99.90
2212;DHT22;48849;48.758;9.158;2023-02-21T16:16:44;13.20;99.90
2212;DHT22;48849;48.758;9.158;2023-02-21T16:19:12;11.90;99.90
2212;DHT22;48849;48.758;9.158;2023-02-21T16:21:39;11.90;99.90
2212;DHT22;48849;48.758;9.158;2023-02-21T16:24:27;11.90;99.90
2212;DHT22;48849;48.758;9.158;2023-02-21T16:27:05;11.90;99.90
2212;DHT22;48849;48.758;9.158;2023-02-21T16:29:33;11.90;99.90
2212;DHT22;48849;48.758;9.158;2023-02-21T16:32:00;11.90;99.90
2212;DHT22;48849;48.758;9.158;2023-02-21T16:34:29;11.80;99.90
2212;DHT22;48849;48.758;9.158;2023-02-21T16:37:01;11.80;99.90
2212;DHT22;48849;48.758;9.158;2023-02-21T16:39:28;11.80;99.90
2212;DHT22;48849;48.758;9.158;2023-02-21T16:41:55;11.80;99.90
2212;DHT22;48849;48.758;9.158;2023-02-21T16:44:22;11.80;99.90
2212;DHT22;48849;48.758;9.158;2023-02-21T16:46:50;11.70;99.90
2212;DHT22;48849;48.758;9.158;2023-02-21T16:49:17;11.70;99.90
2212;DHT22;48849;48.758;9.158;2023-02-21T16:51:44;11.70;99.90
2212;DHT22;48849;48.758;9.158;2023-02-21T16:54:11;11.70;99.90
2212;DHT22;48849;48.758;9.158;2023-02-21T16:56:38;11.70;99.90
2212;DHT22;48849;48.758;9.158;2023-02-21T16:59:08;11.70;99.90